Time;durP1;ratioP1;P1;durP2;ratioP2;P2;SDS_P1;SDS_P2;PMS_P1;PMS_P2;Temp;Humidity;BMP_temperature;BMP_pressure;BME280_temperature;BME280_humidity;BME280_pressure;Samples;Min_cycle;Max_cycle;Signal;HPM_P1;HPM_P2
2023/07/05 00:09:37;;;;;;;2.13;1.60;;;;;;;21.22;70.39;100325.94;20988356;28;20091;-66
2023/07/05 00:19:39;;;;;;;2.60;1.35;;;;;;;21.19;70.58;100285.69;20937546;28;20084;-66
2023/07/05 00:29:40;;;;;;;2.33;1.50;;;;;;;21.19;70.68;100272.97;20906286;28;20114;-66
2023/07/05 00:39:42;;;;;;;2.03;1.40;;;;;;;21.20;70.81;100250.31;20946720;28;20044;-66
2023/07/05 00:49:44;;;;;;;2.00;1.52;;;;;;;21.20;70.85;100231.38;21033782;28;20076;-66
2023/07/05 00:59:59;;;;;;;2.95;1.77;;;;;;;21.18;71.01;100200.91;21040148;28;20052;-66
2023/07/05 01:10:01;;;;;;;2.92;1.67;;;;;;;21.17;71.22;100190.28;20977639;28;20447;-66
2023/07/05 01:20:10;;;;;;;2.25;1.50;;;;;;;21.15;71.31;100199.44;20885712;28;20053;-66
2023/07/05 01:30:30;;;;;;;1.75;1.27;;;;;;;21.15;71.39;100201.28;20901744;28;20064;-66
2023/07/05 01:40:32;;;;;;;2.20;1.50;;;;;;;21.14;71.29;100164.41;20933959;28;20049;-66
2023/07/05 01:50:37;;;;;;;3.13;2.00;;;;;;;21.12;71.82;100121.28;20901392;28;20489;-66
2023/07/05 02:00:40;;;;;;;2.67;1.77;;;;;;;21.07;71.78;100058.75;20980635;28;20057;-66
2023/07/05 02:10:42;;;;;;;3.50;1.90;;;;;;;21.09;71.62;100024.22;20898946;28;20075;-66
2023/07/05 02:20:43;;;;;;;2.20;1.92;;;;;;;21.10;71.69;100020.50;20935151;28;20079;-66
2023/07/05 02:30:45;;;;;;;4.03;2.10;;;;;;;21.08;71.73;99978.38;20968328;28;20107;-66
2023/07/05 02:40:48;;;;;;;2.55;1.92;;;;;;;21.09;71.81;99942.19;20912562;28;20090;-66
2023/07/05 02:50:49;;;;;;;2.45;2.10;;;;;;;21.07;72.02;99919.88;20982959;28;20059;-66
2023/07/05 03:00:51;;;;;;;3.47;2.55;;;;;;;21.03;72.18;99872.56;20983543;28;20082;-66
2023/07/05 03:10:54;;;;;;;3.38;2.53;;;;;;;21.03;72.40;99851.75;20962743;28;20044;-66
2023/07/05 03:20:56;;;;;;;3.22;2.53;;;;;;;21.03;72.59;99843.66;20944826;28;20044;-66
2023/07/05 03:30:59;;;;;;;3.45;2.45;;;;;;;21.02;72.82;99812.19;20951772;28;20051;-66
2023/07/05 03:41:04;;;;;;;3.17;2.60;;;;;;;21.03;73.00;99802.19;20957354;28;20047;-66
2023/07/05 03:51:07;;;;;;;4.43;3.05;;;;;;;20.95;73.21;99805.81;20954800;28;20045;-66
2023/07/05 04:01:19;;;;;;;3.92;2.75;;;;;;;21.03;74.10;99821.13;20970244;28;20062;-66
2023/07/05 04:11:21;;;;;;;3.20;2.38;;;;;;;21.03;74.58;99829.25;20960652;28;20048;-68
2023/07/05 04:21:24;;;;;;;3.88;2.80;;;;;;;21.03;74.99;99840.09;20959209;28;20051;-67
2023/07/05 04:31:28;;;;;;;3.15;2.20;;;;;;;21.06;75.08;99839.72;20952501;28;20049;-67
2023/07/05 04:41:30;;;;;;;2.72;2.35;;;;;;;21.10;75.34;99841.03;20954365;28;20072;-67
2023/07/05 04:51:33;;;;;;;2.42;2.20;;;;;;;21.13;75.68;99854.19;20953198;28;20045;-67
2023/07/05 05:01:34;;;;;;;2.97;2.30;;;;;;;21.18;75.47;99886.94;20955618;28;20052;-67
2023/07/05 05:11:36;;;;;;;3.13;2.00;;;;;;;21.23;75.22;99881.84;20958014;28;20087;-66
2023/07/05 05:21:38;;;;;;;2.38;1.88;;;;;;;21.25;74.82;99876.25;20929758;28;20462;-66
2023/07/05 05:31:39;;;;;;;3.35;2.03;;;;;;;21.27;73.86;99856.09;20952741;28;20166;-66
2023/07/05 05:41:41;;;;;;;2.05;1.80;;;;;;;21.32;73.36;99870.94;20942969;28;20080;-66
2023/07/05 05:51:43;;;;;;;2.25;1.80;;;;;;;21.32;72.94;99869.06;20954168;28;20148;-66
2023/07/05 06:01:44;;;;;;;2.88;2.00;;;;;;;21.33;72.43;99848.25;20940586;28;20425;-66
2023/07/05 06:11:48;;;;;;;2.33;1.85;;;;;;;21.34;71.92;99836.41;20935902;28;20060;-66
2023/07/05 06:21:49;;;;;;;2.33;1.63;;;;;;;21.34;71.61;99804.75;20910216;28;20426;-67
2023/07/05 06:31:51;;;;;;;3.08;1.90;;;;;;;21.36;71.27;99796.47;20937942;28;20455;-66
2023/07/05 06:41:55;;;;;;;2.13;1.80;;;;;;;21.39;71.20;99785.25;20946129;28;20068;-66
2023/07/05 06:51:56;;;;;;;3.58;2.03;;;;;;;21.41;70.89;99788.63;20956342;28;20517;-67
2023/07/05 07:01:58;;;;;;;3.40;2.10;;;;;;;21.50;70.80;99786.66;20952462;28;20124;-67
2023/07/05 07:12:00;;;;;;;2.33;1.73;;;;;;;21.55;70.31;99774.22;20938875;28;20695;-67
2023/07/05 07:22:02;;;;;;;2.60;1.80;;;;;;;21.58;70.02;99763.00;20947806;28;20525;-65
2023/07/05 07:32:04;;;;;;;2.92;1.88;;;;;;;21.61;69.89;99760.94;20928212;28;20068;-66
2023/07/05 07:42:06;;;;;;;2.17;1.77;;;;;;;21.57;69.88;99745.06;20916144;28;20055;-66
2023/07/05 07:52:10;;;;;;;3.38;1.88;;;;;;;21.55;69.85;99770.69;20931808;28;20053;-66
2023/07/05 08:02:12;;;;;;;;;;;;;;;21.55;70.53;99763.38;20950437;28;20088;-65
2023/07/05 08:12:14;;;;;;;2.03;1.70;;;;;;;21.55;70.58;99708.41;20947505;28;20003;-66
2023/07/05 08:22:16;;;;;;;2.58;1.80;;;;;;;21.59;70.66;99674.50;20933447;28;20070;-65
2023/07/05 08:32:21;;;;;;;2.53;1.47;;;;;;;21.60;70.37;99630.13;20915327;28;20048;-64
2023/07/05 08:42:54;;;;;;;1.52;1.05;;;;;;;21.59;69.79;99582.41;20930375;28;20041;-65
2023/07/05 08:53:01;;;;;;;2.15;1.17;;;;;;;21.48;69.62;99526.91;20925257;28;20044;-66
2023/07/05 09:03:10;;;;;;;1.65;1.00;;;;;;;21.55;69.38;99481.75;20915698;28;20132;-66
2023/07/05 09:13:34;;;;;;;1.40;1.15;;;;;;;21.56;69.30;99521.34;20897837;28;20128;-66
2023/07/05 09:23:42;;;;;;;2.13;1.00;;;;;;;21.55;69.57;99530.50;20923776;28;20090;-67
2023/07/05 09:33:49;;;;;;;1.77;1.20;;;;;;;21.60;69.41;99532.63;20921060;28;20425;-66
2023/07/05 09:43:50;;;;;;;0.93;0.82;;;;;;;21.63;69.30;99545.78;20918103;28;20064;-66
2023/07/05 09:53:57;;;;;;;1.30;0.98;;;;;;;21.62;69.07;99578.47;20917789;28;20064;-66
2023/07/05 10:04:03;;;;;;;1.67;0.75;;;;;;;21.62;69.11;99619.09;20937086;28;20055;-67
2023/07/05 10:14:05;;;;;;;0.90;0.70;;;;;;;21.65;69.07;99656.66;20921383;28;20045;-66
2023/07/05 10:24:09;;;;;;;1.75;1.00;;;;;;;21.64;68.83;99685.63;20935676;28;20075;-66
2023/07/05 10:34:23;;;;;;;0.80;0.70;;;;;;;21.61;68.77;99723.88;20926783;28;20044;-66
2023/07/05 10:44:30;;;;;;;1.98;0.88;;;;;;;21.57;69.06;99755.09;20926069;28;20534;-67
2023/07/05 10:55:09;;;;;;;1.80;0.70;;;;;;;21.56;69.85;99808.38;20932425;28;20052;-66
2023/07/05 11:05:28;;;;;;;2.67;0.88;;;;;;;21.57;70.30;99834.44;20921461;28;20049;-66
2023/07/05 11:15:33;;;;;;;2.17;0.80;;;;;;;21.58;70.37;99879.47;20930680;28;20067;-66
2023/07/05 11:26:00;;;;;;;2.47;0.80;;;;;;;21.61;70.55;99950.53;20934620;28;20123;-66
2023/07/05 11:36:08;;;;;;;1.20;0.70;;;;;;;21.59;70.39;99945.31;20933639;28;20049;-66
2023/07/05 11:46:33;;;;;;;2.30;0.77;;;;;;;21.61;70.30;99983.03;20936780;28;20090;-66
2023/07/05 11:56:36;;;;;;;;;;;;;;;21.59;70.21;100007.59;20932334;28;20037;-66
2023/07/05 12:06:40;;;;;;;2.17;0.80;;;;;;;21.49;70.40;100042.22;20942235;28;19993;-67
2023/07/05 12:16:42;;;;;;;1.13;0.70;;;;;;;21.59;70.41;100114.06;20931503;28;20049;-66
2023/07/05 12:26:44;;;;;;;1.30;0.80;;;;;;;21.66;70.33;100154.03;20918447;28;20812;-66
2023/07/05 12:36:46;;;;;;;1.92;0.98;;;;;;;21.69;70.35;100197.00;20931288;28;20053;-66
2023/07/05 12:46:48;;;;;;;2.05;0.80;;;;;;;21.68;70.85;100230.53;20928149;28;20127;-66
2023/07/05 12:56:53;;;;;;;2.22;1.00;;;;;;;21.75;71.18;100239.63;20919185;28;20049;-65
2023/07/05 13:06:57;;;;;;;1.88;0.95;;;;;;;21.82;71.05;100275.81;20920436;28;20040;-66
2023/07/05 13:17:15;;;;;;;1.90;0.80;;;;;;;21.87;71.16;100267.13;20920443;28;21556;-67
2023/07/05 13:27:24;;;;;;;2.55;0.90;;;;;;;21.88;71.03;100304.91;20899826;28;20143;-66
2023/07/05 13:37:27;;;;;;;2.30;0.93;;;;;;;21.90;71.25;100358.09;20909687;28;20161;-66
2023/07/05 13:47:29;;;;;;;1.40;0.80;;;;;;;21.99;70.84;100392.25;20906518;28;20521;-66
2023/07/05 13:57:33;;;;;;;1.30;1.10;;;;;;;22.01;70.97;100412.75;20927548;28;20039;-67
2023/07/05 14:07:35;;;;;;;1.52;0.93;;;;;;;22.04;71.42;100457.63;20888940;28;20337;-67
2023/07/05 14:17:37;;;;;;;2.03;0.85;;;;;;;22.02;71.42;100478.63;20928026;28;20098;-68
2023/07/05 14:27:38;;;;;;;1.63;0.98;;;;;;;22.05;71.58;100491.00;20884289;28;20060;-67
2023/07/05 14:37:47;;;;;;;2.08;1.10;;;;;;;22.07;71.60;100530.47;20896464;28;20051;-71
2023/07/05 14:47:51;;;;;;;1.60;1.02;;;;;;;22.10;73.64;100540.13;20918746;28;20060;-67
2023/07/05 14:57:54;;;;;;;1.92;1.00;;;;;;;22.23;76.92;100548.56;20935206;28;20053;-67
2023/07/05 15:07:56;;;;;;;2.17;1.25;;;;;;;22.33;79.50;100572.75;20944161;28;20554;-65
2023/07/05 15:17:57;;;;;;;4.05;1.85;;;;;;;22.40;80.28;100589.19;20904269;28;20052;-67
2023/07/05 15:28:00;;;;;;;4.63;1.85;;;;;;;22.40;79.57;100589.19;20892097;28;20402;-67
2023/07/05 15:38:01;;;;;;;4.05;2.10;;;;;;;22.46;77.83;100631.94;20947608;28;20048;-66
2023/07/05 15:48:04;;;;;;;3.10;1.73;;;;;;;22.40;76.78;100641.56;20957432;28;20151;-67
2023/07/05 15:58:05;;;;;;;2.97;1.30;;;;;;;22.32;75.36;100655.13;20953665;28;20048;-67
2023/07/05 16:08:08;;;;;;;2.15;1.30;;;;;;;22.24;73.98;100676.84;20993477;28;20139;-66
2023/07/05 16:18:10;;;;;;;1.45;1.20;;;;;;;22.16;73.20;100675.84;20962846;28;20131;-67
2023/07/05 16:28:12;;;;;;;2.60;1.35;;;;;;;22.15;72.73;100720.25;20968287;28;20127;-67
2023/07/05 16:38:14;;;;;;;1.50;1.13;;;;;;;22.12;72.05;100726.00;20978454;28;20518;-66
2023/07/05 16:48:16;;;;;;;2.17;1.30;;;;;;;22.08;71.50;100732.75;20952759;28;20051;-67
2023/07/05 16:58:18;;;;;;;1.80;1.20;;;;;;;22.06;71.40;100752.94;20943629;28;20067;-67
2023/07/05 17:08:19;;;;;;;2.60;1.20;;;;;;;22.05;71.54;100756.66;20928314;28;20068;-67
2023/07/05 17:18:21;;;;;;;2.42;1.13;;;;;;;22.02;71.66;100774.09;20940342;28;20047;-67
2023/07/05 17:28:26;;;;;;;1.38;1.10;;;;;;;22.03;72.31;100770.34;20933731;28;20437;-67
2023/07/05 17:38:29;;;;;;;1.38;1.00;;;;;;;22.05;73.19;100786.47;20945874;28;20067;-67
2023/07/05 17:48:31;;;;;;;1.43;0.80;;;;;;;22.06;73.71;100797.13;20962995;28;20422;-67
2023/07/05 17:58:33;;;;;;;1.25;0.80;;;;;;;22.07;74.00;100814.25;20979476;28;20219;-66
2023/07/05 18:08:34;;;;;;;1.83;1.20;;;;;;;22.07;73.94;100825.94;20946796;28;20239;-66
2023/07/05 18:18:36;;;;;;;1.63;0.98;;;;;;;22.05;73.28;100825.25;20958109;28;20525;-66
2023/07/05 18:28:38;;;;;;;2.17;0.93;;;;;;;21.98;73.36;100837.78;20992859;28;20075;-66
2023/07/05 18:38:40;;;;;;;1.45;1.25;;;;;;;21.94;73.39;100860.81;20995973;28;20061;-66
2023/07/05 18:48:42;;;;;;;2.08;1.25;;;;;;;21.90;72.90;100854.88;20959354;28;20080;-66
2023/07/05 18:58:45;;;;;;;2.75;1.77;;;;;;;21.88;74.80;100868.59;20966437;28;20144;-66
2023/07/05 19:08:47;;;;;;;3.58;1.90;;;;;;;21.86;75.18;100880.59;20953920;28;20098;-66
2023/07/05 19:18:49;;;;;;;2.33;1.60;;;;;;;21.85;75.26;100892.44;20964576;28;20049;-66
2023/07/05 19:28:51;;;;;;;1.65;1.20;;;;;;;21.82;75.19;100901.75;20959026;28;21408;-66
2023/07/05 19:38:54;;;;;;;1.52;1.15;;;;;;;21.82;75.18;100923.44;20974223;28;20041;-66
2023/07/05 19:48:59;;;;;;;1.90;1.20;;;;;;;21.81;74.69;100931.72;20972534;28;20103;-66
2023/07/05 19:59:01;;;;;;;2.13;1.33;;;;;;;21.77;74.08;100941.19;20910244;28;20049;-67
2023/07/05 20:09:02;;;;;;;1.80;1.05;;;;;;;21.73;73.86;100952.34;20891518;28;20466;-66
2023/07/05 20:19:04;;;;;;;1.73;1.17;;;;;;;21.70;73.10;100966.22;20891115;28;20076;-66
2023/07/05 20:29:06;;;;;;;2.00;1.27;;;;;;;21.70;72.93;100989.78;20999314;28;20059;-66
2023/07/05 20:39:09;;;;;;;1.35;1.00;;;;;;;21.67;72.58;101007.19;21073397;28;20105;-66
2023/07/05 20:49:12;;;;;;;1.90;1.10;;;;;;;21.64;72.08;101007.50;21073531;28;20102;-66
2023/07/05 20:59:14;;;;;;;1.73;1.13;;;;;;;21.58;71.74;101008.94;21070560;28;20052;-66
2023/07/05 21:09:16;;;;;;;1.10;1.00;;;;;;;21.59;71.24;101026.91;21070141;28;20055;-66
2023/07/05 21:19:19;;;;;;;1.60;1.00;;;;;;;21.58;71.03;101029.78;21070861;28;20090;-66
2023/07/05 21:29:21;;;;;;;1.50;1.10;;;;;;;21.54;70.59;101040.06;21053506;28;20131;-66
2023/07/05 21:39:22;;;;;;;1.38;0.90;;;;;;;21.53;70.45;101038.38;20927034;28;20143;-66
2023/07/05 21:49:25;;;;;;;1.38;0.80;;;;;;;21.51;70.02;101034.97;20902400;28;20055;-67
2023/07/05 21:59:27;;;;;;;1.48;0.90;;;;;;;21.48;69.88;101046.13;20895222;28;20124;-66
2023/07/05 22:09:29;;;;;;;1.33;0.75;;;;;;;21.45;69.37;101051.84;20978047;28;20517;-66
2023/07/05 22:19:31;;;;;;;1.00;0.90;;;;;;;21.40;69.52;101056.88;20964582;28;20066;-66
2023/07/05 22:29:33;;;;;;;0.73;0.70;;;;;;;21.43;69.19;101064.69;20958077;28;20080;-66
2023/07/05 22:39:34;;;;;;;1.23;0.90;;;;;;;21.40;68.98;101071.25;20967597;28;20044;-66
2023/07/05 22:49:37;;;;;;;2.10;1.15;;;;;;;21.38;68.77;101070.56;20976356;28;20048;-66
2023/07/05 22:59:39;;;;;;;1.42;1.00;;;;;;;21.38;68.61;101072.44;20945917;28;20053;-66
2023/07/05 23:09:41;;;;;;;1.00;0.90;;;;;;;21.33;68.39;101063.94;20950944;28;20081;-66
2023/07/05 23:19:42;;;;;;;1.10;1.00;;;;;;;21.34;68.34;101076.47;20970221;28;20065;-66
2023/07/05 23:29:47;;;;;;;1.20;0.85;;;;;;;21.34;68.19;101081.88;20963682;28;20056;-66
2023/07/05 23:39:48;;;;;;;1.08;0.98;;;;;;;21.32;68.05;101083.91;20969752;28;20132;-66
2023/07/05 23:49:51;;;;;;;1.17;1.00;;;;;;;21.30;68.03;101093.03;20964683;28;20472;-66
2023/07/05 23:59:57;;;;;;;1.80;1.10;;;;;;;21.22;68.08;101095.66;20976583;28;20050;-66
